Time;durP1;ratioP1;P1;durP2;ratioP2;P2;SDS_P1;SDS_P2;PMS_P1;PMS_P2;Temp;Humidity;BMP_temperature;BMP_pressure;BME280_temperature;BME280_humidity;BME280_pressure;Samples;Min_cycle;Max_cycle;Signal;HPM_P1;HPM_P2
2023/02/12 00:00:43;;;;;;;75.83;38.37;;;7.90;99.90;;;;;;5058054;28;20889;-75
2023/02/12 00:03:12;;;;;;;62.77;35.80;;;7.90;99.90;;;;;;5056644;28;20488;-71
2023/02/12 00:05:41;;;;;;;81.20;37.80;;;7.90;99.90;;;;;;5058075;28;20965;-73
2023/02/12 00:08:08;;;;;;;69.23;38.13;;;7.90;99.90;;;;;;5052955;28;20570;-72
2023/02/12 00:10:34;;;;;;;70.80;39.97;;;7.90;99.90;;;;;;5055264;28;20462;-75
2023/02/12 00:13:01;;;;;;;70.43;38.40;;;8.00;99.90;;;;;;5049703;28;20451;-73
2023/02/12 00:15:28;;;;;;;70.13;35.57;;;8.00;99.90;;;;;;5052279;28;20463;-73
2023/02/12 00:17:55;;;;;;;63.47;36.87;;;8.00;99.90;;;;;;5052924;28;20736;-76
2023/02/12 00:20:21;;;;;;;75.37;37.00;;;8.00;99.90;;;;;;5054913;28;20470;-74
2023/02/12 00:22:50;;;;;;;60.57;35.17;;;7.90;99.90;;;;;;5054006;28;20472;-71
2023/02/12 00:25:17;;;;;;;66.40;36.17;;;7.90;99.90;;;;;;5052979;28;20475;-72
2023/02/12 00:27:44;;;;;;;76.90;38.17;;;7.90;99.90;;;;;;5050147;28;20854;-69
2023/02/12 00:30:11;;;;;;;73.03;38.63;;;7.80;99.90;;;;;;5056334;28;20446;-72
2023/02/12 00:32:39;;;;;;;67.43;40.03;;;7.90;99.90;;;;;;5048292;28;20494;-76
2023/02/12 00:35:07;;;;;;;71.30;38.70;;;7.90;99.90;;;;;;5055665;28;20459;-73
2023/02/12 00:37:34;;;;;;;73.20;37.17;;;8.00;99.90;;;;;;5051045;28;20515;-73
2023/02/12 00:40:02;;;;;;;72.07;39.77;;;7.90;99.90;;;;;;5051445;28;20499;-72
2023/02/12 00:42:29;;;;;;;67.23;37.50;;;7.90;99.90;;;;;;5042118;28;20487;-73
2023/02/12 00:44:56;;;;;;;79.90;38.13;;;7.90;99.90;;;;;;5056787;28;20495;-76
2023/02/12 00:47:23;;;;;;;71.13;38.40;;;7.90;99.90;;;;;;5057003;28;20780;-71
2023/02/12 00:49:50;;;;;;;77.00;37.47;;;7.80;99.90;;;;;;5049366;28;20486;-74
2023/02/12 00:52:17;;;;;;;69.90;37.70;;;7.80;99.90;;;;;;5057345;28;20466;-73
2023/02/12 00:54:43;;;;;;;80.40;39.50;;;7.80;99.90;;;;;;5055809;28;20467;-76
2023/02/12 00:57:12;;;;;;;72.50;39.43;;;7.90;99.90;;;;;;5053225;28;20466;-73
2023/02/12 00:59:41;;;;;;;66.63;39.67;;;7.90;99.90;;;;;;5050237;28;20491;-73
2023/02/12 01:02:07;;;;;;;76.97;39.67;;;8.00;99.90;;;;;;5052806;28;20463;-72
2023/02/12 01:04:35;;;;;;;72.37;39.00;;;8.00;99.90;;;;;;5057576;28;20490;-71
2023/02/12 01:07:01;;;;;;;78.77;37.47;;;8.00;99.90;;;;;;5044507;28;21131;-73
2023/02/12 01:09:28;;;;;;;72.23;38.77;;;7.90;99.90;;;;;;5056764;28;20464;-70
2023/02/12 01:11:55;;;;;;;72.80;37.67;;;8.00;99.90;;;;;;5059001;28;20474;-73
2023/02/12 01:14:23;;;;;;;75.97;38.40;;;8.00;99.90;;;;;;5050762;28;20855;-71
2023/02/12 01:16:50;;;;;;;78.00;38.53;;;8.00;99.90;;;;;;5057062;28;20471;-74
2023/02/12 01:19:17;;;;;;;70.33;39.93;;;8.00;99.90;;;;;;5057993;28;20758;-73
2023/02/12 01:21:44;;;;;;;69.70;37.63;;;8.00;99.90;;;;;;5050929;28;20852;-74
2023/02/12 01:24:11;;;;;;;74.00;40.10;;;8.00;99.90;;;;;;5056061;28;20723;-74
2023/02/12 01:26:38;;;;;;;69.27;38.93;;;8.00;99.90;;;;;;5060243;28;20578;-72
2023/02/12 01:29:07;;;;;;;62.57;38.03;;;8.00;99.90;;;;;;5058081;28;20921;-72
2023/02/12 01:31:39;;;;;;;64.70;37.00;;;8.00;99.90;;;;;;5055115;28;20466;-72
2023/02/12 01:34:07;;;;;;;66.60;38.20;;;8.00;99.90;;;;;;5052870;28;20467;-71
2023/02/12 01:36:34;;;;;;;65.90;36.03;;;8.00;99.90;;;;;;5054273;28;20463;-75
2023/02/12 01:39:02;;;;;;;67.87;36.80;;;8.00;99.90;;;;;;5054748;28;20893;-71
2023/02/12 01:41:31;;;;;;;59.77;36.47;;;8.00;99.90;;;;;;5047679;28;20490;-70
2023/02/12 01:44:10;;;;;;;66.73;36.83;;;8.00;99.90;;;;;;5047401;28;20496;-70
2023/02/12 01:46:38;;;;;;;73.93;37.70;;;8.00;99.90;;;;;;5052969;28;20475;-72
2023/02/12 01:49:08;;;;;;;58.03;37.97;;;7.90;99.90;;;;;;5051397;28;20479;-70
2023/02/12 01:51:36;;;;;;;75.30;37.53;;;7.90;99.90;;;;;;5055662;28;20470;-71
2023/02/12 01:54:07;;;;;;;72.23;40.53;;;7.90;99.90;;;;;;5053996;28;20620;-71
2023/02/12 01:56:35;;;;;;;77.83;40.77;;;7.90;99.90;;;;;;5055139;28;20856;-71
2023/02/12 01:59:02;;;;;;;71.33;39.13;;;7.90;99.90;;;;;;5050735;28;20526;-73
2023/02/12 02:01:32;;;;;;;73.57;38.83;;;7.90;99.90;;;;;;5056958;28;20463;-74
2023/02/12 02:04:05;;;;;;;76.73;41.07;;;7.80;99.90;;;;;;5050276;28;20489;-74
2023/02/12 02:06:34;;;;;;;80.17;41.53;;;7.70;99.90;;;;;;5046696;28;20467;-73
2023/02/12 02:09:02;;;;;;;72.47;38.20;;;7.80;99.90;;;;;;5063809;28;20868;-72
2023/02/12 02:17:06;;;;;;;73.43;36.07;;;7.70;99.90;;;;;;5055850;28;20741;-70
2023/02/12 02:20:02;;;;;;;67.53;38.93;;;7.70;99.90;;;;;;5052050;28;20932;-72
2023/02/12 02:22:34;;;;;;;75.90;37.07;;;7.70;99.90;;;;;;5048550;28;20567;-72
2023/02/12 02:25:28;;;;;;;68.90;37.63;;;7.80;99.90;;;;;;5057107;28;20950;-75
2023/02/12 02:28:03;;;;;;;73.03;37.60;;;7.70;99.90;;;;;;5048342;28;20471;-71
2023/02/12 02:30:44;;;;;;;66.23;36.13;;;7.50;99.90;;;;;;5056170;28;21372;-70
2023/02/12 02:33:21;;;;;;;63.57;36.23;;;7.50;99.90;;;;;;5063632;28;20554;-75
2023/02/12 02:35:57;;;;;;;66.83;36.70;;;7.50;99.90;;;;;;5055769;28;20463;-75
2023/02/12 02:38:31;;;;;;;58.77;33.00;;;7.50;99.90;;;;;;5057167;28;20796;-73
2023/02/12 02:41:05;;;;;;;69.20;35.63;;;7.50;99.90;;;;;;5053321;28;20470;-73
2023/02/12 02:43:37;;;;;;;69.07;38.07;;;7.50;99.90;;;;;;5052539;28;20459;-72
2023/02/12 02:46:09;;;;;;;71.83;36.23;;;7.60;99.90;;;;;;5055345;28;20872;-70
2023/02/12 02:48:39;;;;;;;67.30;38.03;;;7.60;99.90;;;;;;5049602;28;20693;-73
2023/02/12 02:51:11;;;;;;;65.83;36.30;;;7.60;99.90;;;;;;5045502;28;20476;-71
2023/02/12 02:53:42;;;;;;;76.13;37.10;;;7.60;99.90;;;;;;5057123;28;20460;-71
2023/02/12 02:56:14;;;;;;;71.17;36.90;;;7.50;99.90;;;;;;5051004;28;20470;-71
2023/02/12 02:58:46;;;;;;;72.30;37.63;;;7.60;99.90;;;;;;5053337;28;20466;-74
2023/02/12 03:01:18;;;;;;;66.10;37.57;;;7.60;99.90;;;;;;5052450;28;20471;-71
2023/02/12 03:03:51;;;;;;;69.07;39.80;;;7.70;99.90;;;;;;5057463;28;20619;-72
2023/02/12 03:06:25;;;;;;;65.60;37.40;;;7.70;99.90;;;;;;5054979;28;20462;-74
2023/02/12 03:08:57;;;;;;;70.63;39.37;;;7.70;99.90;;;;;;5055171;28;20485;-71
2023/02/12 03:11:27;;;;;;;66.77;38.77;;;7.70;99.90;;;;;;5052092;28;20458;-71
2023/02/12 03:13:59;;;;;;;69.37;37.07;;;7.80;99.90;;;;;;5054885;28;20459;-72
2023/02/12 03:16:31;;;;;;;68.50;36.80;;;7.80;99.90;;;;;;5055576;28;20506;-74
2023/02/12 03:19:04;;;;;;;64.97;37.53;;;7.90;99.90;;;;;;5050968;28;20455;-71
2023/02/12 03:21:41;;;;;;;63.67;35.57;;;7.90;99.90;;;;;;5052810;28;21194;-71
2023/02/12 03:24:13;;;;;;;63.80;39.47;;;7.90;99.90;;;;;;5055940;28;20813;-71
2023/02/12 03:26:45;;;;;;;64.13;37.07;;;7.90;99.90;;;;;;5053732;28;20988;-72
2023/02/12 03:29:12;;;;;;;62.30;36.17;;;7.90;99.90;;;;;;5042015;28;20534;-74
2023/02/12 03:31:51;;;;;;;64.07;37.70;;;7.90;99.90;;;;;;5057950;28;20474;-73
2023/02/12 03:34:26;;;;;;;72.37;39.73;;;7.90;99.90;;;;;;5050904;28;20758;-72
2023/02/12 03:36:56;;;;;;;62.40;37.00;;;8.00;99.90;;;;;;5048704;28;20472;-74
2023/02/12 03:39:30;;;;;;;70.23;40.83;;;8.00;99.90;;;;;;5048571;28;20491;-73
2023/02/12 03:42:04;;;;;;;61.17;36.53;;;7.90;99.90;;;;;;5057124;28;20973;-70
2023/02/12 03:44:43;;;;;;;70.57;38.17;;;7.80;99.90;;;;;;5044471;28;20551;-70
2023/02/12 03:47:19;;;;;;;64.00;35.80;;;7.90;99.90;;;;;;5052293;28;20463;-73
2023/02/12 03:49:52;;;;;;;66.07;37.33;;;7.90;99.90;;;;;;5044290;28;20794;-71
2023/02/12 03:52:19;;;;;;;66.97;36.80;;;8.00;99.90;;;;;;5053872;28;20463;-70
2023/02/12 03:54:46;;;;;;;58.60;36.07;;;7.90;99.90;;;;;;5055221;28;20783;-71
2023/02/12 03:57:19;;;;;;;67.27;37.83;;;7.80;99.90;;;;;;5047758;28;20894;-71
2023/02/12 03:59:46;;;;;;;71.43;38.97;;;7.80;99.90;;;;;;5055635;28;20522;-72
2023/02/12 04:02:16;;;;;;;74.90;39.90;;;7.90;99.90;;;;;;5056486;28;20473;-74
2023/02/12 04:04:44;;;;;;;58.90;36.93;;;8.00;99.90;;;;;;5047920;28;21004;-69
2023/02/12 04:07:11;;;;;;;61.43;35.77;;;7.90;99.90;;;;;;5050578;28;20623;-71
2023/02/12 04:09:38;;;;;;;70.07;35.20;;;7.90;99.90;;;;;;5056420;28;20478;-72
2023/02/12 04:12:27;;;;;;;71.80;38.40;;;7.90;99.90;;;;;;5049864;28;20467;-71
2023/02/12 04:15:03;;;;;;;68.90;36.00;;;7.80;99.90;;;;;;5046858;28;20486;-72
2023/02/12 04:17:39;;;;;;;66.83;36.00;;;7.80;99.90;;;;;;5058486;28;20830;-72
2023/02/12 04:20:14;;;;;;;69.80;38.07;;;7.80;99.90;;;;;;5064214;28;21356;-73
2023/02/12 04:22:52;;;;;;;55.83;33.50;;;7.90;99.90;;;;;;5046519;28;20451;-75
2023/02/12 04:25:29;;;;;;;68.37;37.50;;;7.90;99.90;;;;;;5047929;28;20527;-74
2023/02/12 04:28:06;;;;;;;68.40;36.80;;;7.90;99.90;;;;;;5053168;28;20464;-71
2023/02/12 04:30:38;;;;;;;60.83;35.90;;;7.90;99.90;;;;;;5050632;28;20513;-74
2023/02/12 04:33:10;;;;;;;64.27;36.53;;;7.90;99.90;;;;;;5051558;28;20455;-73
2023/02/12 04:35:48;;;;;;;65.30;36.43;;;8.00;99.90;;;;;;5050374;28;20841;-72
2023/02/12 04:38:20;;;;;;;65.80;37.63;;;7.90;99.90;;;;;;5058639;28;20467;-70
2023/02/12 04:40:48;;;;;;;65.67;38.37;;;7.90;99.90;;;;;;5060304;28;20502;-76
2023/02/12 04:43:25;;;;;;;62.17;35.53;;;7.90;99.90;;;;;;5055226;28;20742;-73
2023/02/12 04:45:52;;;;;;;56.50;33.23;;;7.90;99.90;;;;;;5058534;28;20524;-72
2023/02/12 04:48:20;;;;;;;50.80;34.03;;;7.90;99.90;;;;;;5056556;28;20985;-74
2023/02/12 04:50:47;;;;;;;55.47;34.00;;;7.90;99.90;;;;;;5058714;28;20594;-72
2023/02/12 04:53:14;;;;;;;62.73;36.07;;;7.90;99.90;;;;;;5055602;28;20460;-72
2023/02/12 04:55:41;;;;;;;69.03;35.70;;;8.00;99.90;;;;;;5054561;28;20467;-74
2023/02/12 04:58:08;;;;;;;63.13;36.40;;;7.90;99.90;;;;;;5062483;28;20829;-72
2023/02/12 05:00:36;;;;;;;61.50;37.17;;;7.90;99.90;;;;;;5060339;28;20487;-72
2023/02/12 05:03:03;;;;;;;67.83;39.00;;;7.90;99.90;;;;;;5056470;28;20490;-70
2023/02/12 05:05:31;;;;;;;68.40;36.83;;;7.80;99.90;;;;;;5064193;28;20455;-70
2023/02/12 05:07:58;;;;;;;65.83;36.77;;;7.80;99.90;;;;;;5060201;28;20459;-72
2023/02/12 05:10:25;;;;;;;64.30;35.10;;;7.80;99.90;;;;;;5053945;28;20525;-71
2023/02/12 05:12:53;;;;;;;57.83;34.27;;;7.80;99.90;;;;;;5059141;28;20458;-72
2023/02/12 05:15:21;;;;;;;57.97;35.03;;;7.80;99.90;;;;;;5059619;28;20467;-75
2023/02/12 05:17:48;;;;;;;66.43;34.53;;;7.80;99.90;;;;;;5057164;28;20471;-72
2023/02/12 05:20:15;;;;;;;62.80;36.90;;;7.80;99.90;;;;;;5054800;28;20479;-74
2023/02/12 05:22:43;;;;;;;59.23;35.40;;;7.80;99.90;;;;;;5053765;28;20467;-74
2023/02/12 05:25:10;;;;;;;64.10;35.97;;;7.80;99.90;;;;;;5054171;28;20879;-72
2023/02/12 05:27:37;;;;;;;58.20;34.57;;;7.80;99.90;;;;;;5049056;28;20904;-74
2023/02/12 05:30:04;;;;;;;62.17;36.50;;;7.90;99.90;;;;;;5053478;28;20489;-74
2023/02/12 05:32:31;;;;;;;57.17;35.63;;;7.90;99.90;;;;;;5062419;28;20997;-74
2023/02/12 05:34:58;;;;;;;60.03;36.40;;;7.80;99.90;;;;;;5048486;28;20470;-72
2023/02/12 05:37:25;;;;;;;58.87;33.90;;;7.70;99.90;;;;;;5054997;28;20843;-72
2023/02/12 05:39:54;;;;;;;53.70;34.33;;;7.70;99.90;;;;;;5060108;28;20510;-74
2023/02/12 05:42:20;;;;;;;53.67;32.73;;;7.70;99.90;;;;;;5052912;28;20478;-73
2023/02/12 05:44:47;;;;;;;58.53;33.37;;;7.70;99.90;;;;;;5048413;28;20467;-71
2023/02/12 05:47:14;;;;;;;53.80;34.77;;;7.70;99.90;;;;;;5053379;28;20456;-72
2023/02/12 05:49:41;;;;;;;56.97;34.30;;;7.70;99.90;;;;;;5053506;28;20977;-73
2023/02/12 05:52:08;;;;;;;60.43;35.70;;;7.80;99.90;;;;;;5060356;28;20452;-73
2023/02/12 05:54:35;;;;;;;63.60;37.13;;;7.80;99.90;;;;;;5047711;28;20474;-76
2023/02/12 05:57:03;;;;;;;61.33;36.40;;;7.80;99.90;;;;;;5055859;28;20970;-72
2023/02/12 05:59:30;;;;;;;65.40;37.90;;;7.80;99.90;;;;;;5050982;28;20483;-73
2023/02/12 06:01:57;;;;;;;68.20;35.67;;;7.70;99.90;;;;;;5063699;28;20539;-75
2023/02/12 06:04:26;;;;;;;77.40;38.40;;;7.80;99.90;;;;;;5065969;28;20483;-73
2023/02/12 06:06:54;;;;;;;62.00;37.33;;;7.70;99.90;;;;;;5054999;28;20552;-72
2023/02/12 06:09:22;;;;;;;60.97;35.23;;;7.70;99.90;;;;;;5049657;28;20463;-75
2023/02/12 06:11:49;;;;;;;52.77;33.43;;;7.70;99.90;;;;;;5049150;28;20468;-74
2023/02/12 06:14:19;;;;;;;56.87;32.67;;;7.80;99.90;;;;;;5049665;28;20467;-74
2023/02/12 06:16:47;;;;;;;52.73;32.23;;;7.80;99.90;;;;;;5059074;28;20973;-73
2023/02/12 06:19:14;;;;;;;55.83;32.37;;;7.70;99.90;;;;;;5054984;28;20467;-71
2023/02/12 06:21:41;;;;;;;58.13;32.63;;;7.60;99.90;;;;;;5049112;28;20484;-72
2023/02/12 06:24:09;;;;;;;54.37;32.67;;;7.60;99.90;;;;;;5048248;28;20462;-72
2023/02/12 06:26:36;;;;;;;60.70;32.77;;;7.50;99.90;;;;;;5057473;28;20891;-74
2023/02/12 06:29:03;;;;;;;61.53;34.30;;;7.30;99.90;;;;;;5054049;28;20452;-73
2023/02/12 06:31:33;;;;;;;68.13;34.20;;;7.30;99.90;;;;;;5058694;28;20478;-75
2023/02/12 06:34:02;;;;;;;69.97;36.03;;;7.30;99.90;;;;;;5051345;28;20526;-74
2023/02/12 06:36:29;;;;;;;66.80;38.00;;;7.30;99.90;;;;;;5056020;28;20466;-71
2023/02/12 06:38:56;;;;;;;59.30;33.57;;;7.40;99.90;;;;;;5058883;28;20462;-72
2023/02/12 06:41:23;;;;;;;75.00;38.77;;;7.20;99.90;;;;;;5050848;28;20500;-74
2023/02/12 06:43:50;;;;;;;57.10;35.40;;;7.30;99.90;;;;;;5053636;28;20461;-74
2023/02/12 06:46:17;;;;;;;71.03;36.70;;;7.30;99.90;;;;;;5054909;28;20467;-74
2023/02/12 06:48:45;;;;;;;61.30;36.10;;;7.30;99.90;;;;;;5057944;28;20534;-72
2023/02/12 06:51:14;;;;;;;65.13;36.27;;;7.40;99.90;;;;;;5059859;28;20476;-75
2023/02/12 06:53:41;;;;;;;69.50;37.33;;;7.40;99.90;;;;;;5054262;28;20470;-75
2023/02/12 06:56:11;;;;;;;61.80;34.10;;;7.40;99.90;;;;;;5051092;28;20486;-73
2023/02/12 06:58:40;;;;;;;54.43;32.63;;;7.50;99.90;;;;;;5055422;28;20556;-74
2023/02/12 07:01:12;;;;;;;58.57;35.20;;;7.50;99.90;;;;;;5048941;28;20487;-72
2023/02/12 07:03:40;;;;;;;66.63;36.60;;;7.50;99.90;;;;;;5055960;28;20498;-73
2023/02/12 07:06:09;;;;;;;56.33;34.40;;;7.60;99.90;;;;;;5050145;28;20514;-74
2023/02/12 07:08:36;;;;;;;62.37;35.83;;;7.60;99.90;;;;;;5054842;28;20513;-73
2023/02/12 07:11:03;;;;;;;59.50;33.60;;;7.60;99.90;;;;;;5055636;28;20464;-72
2023/02/12 07:13:33;;;;;;;72.57;37.30;;;7.60;99.90;;;;;;5053136;28;20567;-72
2023/02/12 07:16:03;;;;;;;68.37;36.80;;;7.50;99.90;;;;;;5054552;28;20471;-73
2023/02/12 07:18:30;;;;;;;56.20;35.23;;;7.40;99.90;;;;;;5049512;28;20846;-74
2023/02/12 07:20:57;;;;;;;61.90;35.87;;;7.50;99.90;;;;;;5055654;28;20486;-74
2023/02/12 07:23:25;;;;;;;63.00;33.57;;;7.50;99.90;;;;;;5051438;28;20513;-72
2023/02/12 07:25:56;;;;;;;55.70;34.83;;;7.60;99.90;;;;;;5054213;28;20463;-73
2023/02/12 07:28:22;;;;;;;60.00;37.63;;;7.70;99.90;;;;;;5056263;28;20468;-73
2023/02/12 07:30:49;;;;;;;59.37;36.50;;;7.70;99.90;;;;;;5058329;28;20464;-74
2023/02/12 07:33:16;;;;;;;69.30;34.70;;;7.60;99.90;;;;;;5055105;28;20466;-76
2023/02/12 07:35:43;;;;;;;63.07;36.80;;;7.60;99.90;;;;;;5047791;28;20940;-73
2023/02/12 07:38:10;;;;;;;60.80;33.93;;;7.60;99.90;;;;;;5052158;28;20451;-72
2023/02/12 07:40:39;;;;;;;61.77;35.37;;;7.70;99.90;;;;;;5055696;28;20530;-71
2023/02/12 07:43:06;;;;;;;62.63;35.60;;;7.90;99.90;;;;;;5050358;28;20499;-73
2023/02/12 07:45:33;;;;;;;57.87;35.43;;;7.90;99.90;;;;;;5052205;28;20952;-75
2023/02/12 07:48:01;;;;;;;68.33;36.67;;;8.00;99.90;;;;;;5063736;28;20517;-75
2023/02/12 07:50:28;;;;;;;69.00;35.87;;;7.90;99.90;;;;;;5056417;28;20890;-74
2023/02/12 07:52:55;;;;;;;62.50;34.20;;;8.00;99.90;;;;;;5054432;28;20467;-71
2023/02/12 07:55:22;;;;;;;58.90;38.37;;;8.00;99.90;;;;;;5049493;28;20471;-75
2023/02/12 07:57:50;;;;;;;55.90;35.77;;;8.10;99.90;;;;;;5056300;28;20495;-73
2023/02/12 08:00:18;;;;;;;70.53;36.30;;;8.10;99.90;;;;;;5058045;28;20920;-74
2023/02/12 08:02:50;;;;;;;58.73;36.70;;;8.10;99.90;;;;;;5053780;28;20483;-73
2023/02/12 08:05:17;;;;;;;58.67;35.40;;;8.20;99.90;;;;;;5049789;28;20828;-73
2023/02/12 08:07:44;;;;;;;71.00;38.50;;;8.30;99.90;;;;;;5055798;28;20463;-73
2023/02/12 08:10:11;;;;;;;62.40;38.80;;;8.30;99.90;;;;;;5056853;28;20475;-71
2023/02/12 08:12:38;;;;;;;65.10;39.27;;;8.40;99.90;;;;;;5051855;28;20614;-72
2023/02/12 08:15:07;;;;;;;80.70;37.90;;;8.40;99.90;;;;;;5051071;28;21124;-72
2023/02/12 08:17:35;;;;;;;64.80;40.47;;;8.40;99.90;;;;;;5049929;28;20467;-72
2023/02/12 08:20:02;;;;;;;72.40;41.07;;;8.50;99.90;;;;;;5054270;28;20469;-71
2023/02/12 08:22:28;;;;;;;68.80;40.57;;;8.60;99.90;;;;;;5051429;28;20983;-71
2023/02/12 08:24:55;;;;;;;69.33;40.00;;;8.70;99.90;;;;;;5056280;28;20466;-72
2023/02/12 08:27:23;;;;;;;67.67;39.50;;;8.80;99.90;;;;;;5055730;28;20460;-72
2023/02/12 08:29:49;;;;;;;70.07;39.77;;;8.80;99.90;;;;;;5056055;28;21001;-71
2023/02/12 08:32:18;;;;;;;65.10;39.03;;;9.00;99.90;;;;;;5059128;28;20828;-74
2023/02/12 08:34:45;;;;;;;72.23;39.93;;;9.00;99.90;;;;;;5059236;28;20475;-74
2023/02/12 08:37:12;;;;;;;72.23;38.87;;;9.10;99.90;;;;;;5058616;28;20833;-72
2023/02/12 08:39:38;;;;;;;66.03;39.27;;;9.20;99.90;;;;;;5052391;28;20485;-72
2023/02/12 08:42:05;;;;;;;71.50;41.03;;;9.30;99.90;;;;;;5052041;28;20971;-72
2023/02/12 08:44:32;;;;;;;81.07;39.67;;;9.40;99.90;;;;;;5061092;28;20541;-72
2023/02/12 08:46:59;;;;;;;75.80;41.60;;;9.50;99.90;;;;;;5051613;28;20470;-71
2023/02/12 08:49:30;;;;;;;68.77;41.23;;;9.50;99.90;;;;;;5046766;28;20953;-73
2023/02/12 08:52:00;;;;;;;74.13;40.73;;;9.70;99.90;;;;;;5060336;28;20544;-72
2023/02/12 08:54:28;;;;;;;70.60;41.10;;;9.70;99.90;;;;;;5054495;28;20463;-75
2023/02/12 08:56:56;;;;;;;74.30;42.57;;;9.90;99.90;;;;;;5056503;28;20471;-73
2023/02/12 08:59:23;;;;;;;76.00;43.73;;;10.00;99.90;;;;;;5060631;28;20490;-71
2023/02/12 09:01:51;;;;;;;73.50;38.70;;;10.00;99.90;;;;;;5059706;28;20493;-70
2023/02/12 09:04:20;;;;;;;69.63;39.83;;;10.00;99.90;;;;;;5055684;28;20479;-72
2023/02/12 09:06:49;;;;;;;76.00;42.50;;;10.10;99.90;;;;;;5049294;28;20898;-73
2023/02/12 09:09:18;;;;;;;76.77;43.93;;;10.20;99.90;;;;;;5053322;28;20503;-75
2023/02/12 09:11:45;;;;;;;79.00;43.63;;;10.30;99.90;;;;;;5054251;28;20516;-75
2023/02/12 09:14:15;;;;;;;65.43;42.00;;;10.30;99.90;;;;;;5056056;28;21438;-74
2023/02/12 09:16:42;;;;;;;77.13;43.63;;;10.40;99.90;;;;;;5055974;28;20470;-72
2023/02/12 09:19:11;;;;;;;64.90;43.10;;;10.30;99.90;;;;;;5052456;28;21059;-72
2023/02/12 09:21:39;;;;;;;75.73;39.03;;;10.50;99.90;;;;;;5059023;28;20495;-70
2023/02/12 09:24:08;;;;;;;70.00;43.87;;;10.70;99.90;;;;;;5055200;28;20455;-74
2023/02/12 09:26:35;;;;;;;67.03;41.43;;;10.80;99.90;;;;;;5058522;28;20459;-73
2023/02/12 09:29:03;;;;;;;66.90;42.57;;;10.80;99.90;;;;;;5052673;28;20825;-71
2023/02/12 09:31:32;;;;;;;63.90;41.57;;;11.00;99.90;;;;;;5060893;28;20632;-74
2023/02/12 09:34:01;;;;;;;67.50;42.60;;;11.00;99.90;;;;;;5057796;28;20464;-70
2023/02/12 09:36:28;;;;;;;60.03;40.53;;;11.00;99.90;;;;;;5052266;28;20464;-73
2023/02/12 09:38:55;;;;;;;68.93;40.47;;;10.90;99.90;;;;;;5061556;28;21029;-73
2023/02/12 09:42:02;;;;;;;69.07;43.20;;;11.00;99.90;;;;;;5060788;28;20525;-72
2023/02/12 09:44:36;;;;;;;62.97;41.53;;;11.00;99.90;;;;;;5035494;28;20457;-74
2023/02/12 09:47:06;;;;;;;60.10;41.20;;;11.30;99.90;;;;;;5054437;28;20467;-73
2023/02/12 09:49:54;;;;;;;62.03;40.73;;;11.40;99.90;;;;;;5052083;28;20486;-69
2023/02/12 09:52:25;;;;;;;64.87;42.33;;;11.50;99.90;;;;;;5055099;28;21275;-73
2023/02/12 09:54:52;;;;;;;58.90;40.57;;;11.40;99.90;;;;;;5053222;28;20821;-70
2023/02/12 09:57:28;;;;;;;68.50;42.57;;;11.50;99.90;;;;;;5056281;28;20459;-72
2023/02/12 09:59:59;;;;;;;63.00;41.80;;;11.60;99.90;;;;;;5056184;28;20487;-72
2023/02/12 10:02:26;;;;;;;59.73;41.10;;;11.50;99.90;;;;;;5056436;28;20487;-74
2023/02/12 10:04:54;;;;;;;56.07;40.63;;;11.40;99.90;;;;;;5055678;28;20463;-73
2023/02/12 10:07:33;;;;;;;65.70;41.27;;;11.40;99.90;;;;;;5052093;28;20486;-71
2023/02/12 10:10:20;;;;;;;59.27;41.57;;;11.50;99.90;;;;;;5058991;28;20458;-70
2023/02/12 10:12:52;;;;;;;62.03;41.80;;;11.80;99.90;;;;;;5052219;28;20478;-73
2023/02/12 10:15:31;;;;;;;63.87;41.80;;;11.50;99.90;;;;;;5047454;28;20460;-73
2023/02/12 10:18:15;;;;;;;64.57;40.50;;;11.30;99.90;;;;;;5054683;28;20470;-72
2023/02/12 10:20:54;;;;;;;62.13;41.63;;;11.50;99.90;;;;;;5053475;28;20907;-76
2023/02/12 10:23:38;;;;;;;70.03;42.27;;;11.50;99.90;;;;;;5052439;28;20472;-73
2023/02/12 10:26:13;;;;;;;60.60;39.37;;;11.40;99.90;;;;;;5049481;28;20483;-74
2023/02/12 10:28:43;;;;;;;64.93;40.70;;;11.60;99.90;;;;;;5053136;28;20458;-72
2023/02/12 10:31:16;;;;;;;65.07;41.60;;;11.60;99.90;;;;;;5055023;28;20462;-75
2023/02/12 10:33:47;;;;;;;73.07;42.87;;;11.70;99.90;;;;;;5054812;28;20825;-75
2023/02/12 10:36:23;;;;;;;73.03;41.67;;;11.70;99.90;;;;;;5053844;28;21018;-74
2023/02/12 10:38:55;;;;;;;61.57;42.30;;;11.70;99.90;;;;;;5051228;28;20450;-75
2023/02/12 10:41:24;;;;;;;60.50;41.20;;;11.80;99.90;;;;;;5042478;28;20490;-71
2023/02/12 10:43:53;;;;;;;63.47;41.07;;;11.80;99.90;;;;;;5053555;28;20489;-71
2023/02/12 10:46:20;;;;;;;68.43;40.70;;;11.70;99.90;;;;;;5058699;28;20463;-72
2023/02/12 10:48:49;;;;;;;73.27;42.90;;;11.70;99.90;;;;;;5049503;28;20467;-73
2023/02/12 10:51:34;;;;;;;75.90;41.90;;;11.60;99.90;;;;;;5049913;28;21174;-73
2023/02/12 10:54:31;;;;;;;62.93;38.97;;;11.50;99.90;;;;;;5054619;28;20448;-71
2023/02/12 10:56:59;;;;;;;68.00;39.60;;;11.50;99.90;;;;;;5049860;28;20460;-71
2023/02/12 10:59:29;;;;;;;57.10;39.23;;;11.60;99.90;;;;;;5037710;28;20466;-71
2023/02/12 11:01:56;;;;;;;74.00;43.83;;;11.70;99.90;;;;;;5049034;28;20487;-73
2023/02/12 11:04:28;;;;;;;86.47;46.60;;;11.50;99.90;;;;;;5048492;28;20500;-73
2023/02/12 11:06:58;;;;;;;89.03;45.57;;;11.40;99.90;;;;;;5048097;28;20467;-72
2023/02/12 11:09:28;;;;;;;77.67;47.10;;;11.50;99.90;;;;;;5052912;28;20470;-74
2023/02/12 11:11:55;;;;;;;96.33;47.90;;;11.60;99.90;;;;;;5051552;28;21106;-72
2023/02/12 11:14:22;;;;;;;74.53;46.23;;;11.70;99.90;;;;;;5055416;28;20470;-74
2023/02/12 11:16:54;;;;;;;87.77;46.60;;;11.80;99.90;;;;;;5059114;28;20581;-73
2023/02/12 11:19:24;;;;;;;80.80;45.70;;;11.90;99.90;;;;;;5058154;28;20466;-71
2023/02/12 11:21:51;;;;;;;84.30;44.10;;;11.90;99.90;;;;;;5050646;28;20482;-71
2023/02/12 11:24:28;;;;;;;75.23;45.57;;;11.90;99.90;;;;;;5048935;28;20970;-71
2023/02/12 11:27:19;;;;;;;67.03;43.10;;;12.10;99.90;;;;;;5050555;28;20791;-71
2023/02/12 11:29:47;;;;;;;76.07;45.00;;;12.00;99.90;;;;;;5050641;28;20835;-70
2023/02/12 11:32:19;;;;;;;69.57;43.17;;;11.80;99.90;;;;;;5055647;28;20474;-72
2023/02/12 11:35:05;;;;;;;76.13;45.57;;;12.00;99.90;;;;;;5049730;28;20463;-73
2023/02/12 11:37:35;;;;;;;72.07;44.50;;;12.00;99.90;;;;;;5052742;28;20522;-71
2023/02/12 11:40:03;;;;;;;75.87;41.10;;;12.10;99.90;;;;;;5055812;28;20473;-72
2023/02/12 11:42:35;;;;;;;69.07;41.90;;;12.10;99.90;;;;;;5056857;28;20494;-72
2023/02/12 11:45:02;;;;;;;72.43;44.73;;;12.00;99.90;;;;;;5053893;28;20458;-72
2023/02/12 11:47:34;;;;;;;72.90;44.10;;;12.20;99.90;;;;;;5055272;28;21660;-71
2023/02/12 11:50:05;;;;;;;67.33;43.97;;;12.50;99.90;;;;;;5051628;28;20463;-71
2023/02/12 11:52:35;;;;;;;67.43;43.10;;;12.80;99.90;;;;;;5054672;28;20467;-73
2023/02/12 11:55:04;;;;;;;70.40;43.83;;;12.90;99.90;;;;;;5053634;28;20939;-73
2023/02/12 11:57:43;;;;;;;67.10;43.40;;;13.00;99.90;;;;;;5053003;28;20462;-74
2023/02/12 12:00:15;;;;;;;74.00;44.27;;;12.90;99.90;;;;;;5048687;28;20486;-71
2023/02/12 12:02:49;;;;;;;59.33;43.00;;;12.90;99.90;;;;;;5051727;28;20483;-71
2023/02/12 12:05:19;;;;;;;64.47;43.90;;;12.90;99.90;;;;;;5057162;28;20521;-71
2023/02/12 12:07:50;;;;;;;67.03;41.60;;;13.00;99.90;;;;;;5051256;28;20466;-71
2023/02/12 12:10:25;;;;;;;60.93;42.43;;;12.90;99.90;;;;;;5049677;28;20472;-73
2023/02/12 12:12:56;;;;;;;65.93;42.87;;;12.90;99.90;;;;;;5056587;28;20463;-71
2023/02/12 12:21:13;;;;;;;58.23;41.97;;;13.20;99.90;;;;;;5055862;28;20557;-71
2023/02/12 12:23:44;;;;;;;56.40;39.70;;;13.60;99.90;;;;;;5046608;28;20581;-71
2023/02/12 12:26:16;;;;;;;54.43;39.83;;;13.90;99.90;;;;;;5055056;28;20467;-74
2023/02/12 12:28:50;;;;;;;50.83;38.47;;;13.60;99.90;;;;;;5056572;28;20458;-73
2023/02/12 12:31:22;;;;;;;53.70;39.13;;;13.60;99.90;;;;;;5054134;28;20459;-73
2023/02/12 12:33:55;;;;;;;52.50;39.30;;;13.00;99.90;;;;;;5056231;28;20955;-70
2023/02/12 12:36:42;;;;;;;54.93;37.10;;;13.00;99.90;;;;;;5051654;28;20465;-71
2023/02/12 12:39:20;;;;;;;47.17;34.70;;;13.20;99.90;;;;;;5057591;28;21347;-71
2023/02/12 12:42:02;;;;;;;53.93;40.43;;;13.10;99.90;;;;;;5055440;28;20490;-71
2023/02/12 12:44:46;;;;;;;47.40;36.67;;;12.90;99.90;;;;;;5051839;28;20840;-72
2023/02/12 12:47:24;;;;;;;42.30;34.77;;;13.00;99.90;;;;;;5055107;28;20537;-71
2023/02/12 12:50:00;;;;;;;43.77;34.47;;;13.00;99.90;;;;;;5049075;28;21084;-72
2023/02/12 12:53:08;;;;;;;46.10;36.00;;;13.00;99.90;;;;;;5047822;28;20834;-72
2023/02/12 12:56:01;;;;;;;41.57;32.13;;;13.10;99.90;;;;;;4990134;28;20462;-71
2023/02/12 12:58:43;;;;;;;45.53;34.17;;;13.20;99.90;;;;;;5006167;28;20472;-74
2023/02/12 13:01:35;;;;;;;48.27;35.90;;;13.20;99.90;;;;;;5050472;28;20467;-71